sensor_id;sensor_type;location;lat;lon;timestamp;temperature;humidity
42755;DHT22;28407;51.830;5.684;2022-10-22T00:00:16;14.80;90.30
42755;DHT22;28407;51.830;5.684;2022-10-22T00:02:17;14.80;90.30
42755;DHT22;28407;51.830;5.684;2022-10-22T00:04:19;14.80;90.30
42755;DHT22;28407;51.830;5.684;2022-10-22T00:06:20;14.80;90.30
42755;DHT22;28407;51.830;5.684;2022-10-22T00:08:21;14.80;90.30
42755;DHT22;28407;51.830;5.684;2022-10-22T00:10:21;14.80;90.30
42755;DHT22;28407;51.830;5.684;2022-10-22T00:12:22;14.80;90.30
42755;DHT22;28407;51.830;5.684;2022-10-22T00:14:23;14.80;90.30
42755;DHT22;28407;51.830;5.684;2022-10-22T00:16:24;14.80;90.30
42755;DHT22;28407;51.830;5.684;2022-10-22T00:18:24;14.80;90.30
42755;DHT22;28407;51.830;5.684;2022-10-22T00:20:25;14.90;90.30
42755;DHT22;28407;51.830;5.684;2022-10-22T00:22:25;14.90;90.40
42755;DHT22;28407;51.830;5.684;2022-10-22T00:24:26;14.90;90.30
42755;DHT22;28407;51.830;5.684;2022-10-22T00:26:26;14.90;90.40
42755;DHT22;28407;51.830;5.684;2022-10-22T00:28:28;14.90;90.40
42755;DHT22;28407;51.830;5.684;2022-10-22T00:30:28;14.90;90.40
42755;DHT22;28407;51.830;5.684;2022-10-22T00:32:29;14.90;90.40
42755;DHT22;28407;51.830;5.684;2022-10-22T00:34:30;14.90;90.40
42755;DHT22;28407;51.830;5.684;2022-10-22T00:36:30;14.90;90.40
42755;DHT22;28407;51.830;5.684;2022-10-22T00:38:32;14.90;90.40
42755;DHT22;28407;51.830;5.684;2022-10-22T00:40:32;14.90;90.40
42755;DHT22;28407;51.830;5.684;2022-10-22T00:42:33;14.90;90.40
42755;DHT22;28407;51.830;5.684;2022-10-22T00:47:02;14.90;90.40
42755;DHT22;28407;51.830;5.684;2022-10-22T00:49:03;14.90;90.40
42755;DHT22;28407;51.830;5.684;2022-10-22T00:51:05;14.90;90.40
42755;DHT22;28407;51.830;5.684;2022-10-22T00:53:12;14.90;90.40
42755;DHT22;28407;51.830;5.684;2022-10-22T00:55:14;14.90;90.40
42755;DHT22;28407;51.830;5.684;2022-10-22T00:57:15;14.80;90.40
42755;DHT22;28407;51.830;5.684;2022-10-22T00:59:16;14.90;90.40
42755;DHT22;28407;51.830;5.684;2022-10-22T01:01:21;14.80;90.40
42755;DHT22;28407;51.830;5.684;2022-10-22T01:03:23;14.80;90.40
42755;DHT22;28407;51.830;5.684;2022-10-22T01:05:27;14.80;90.40
42755;DHT22;28407;51.830;5.684;2022-10-22T01:07:28;14.80;90.40
42755;DHT22;28407;51.830;5.684;2022-10-22T01:09:43;14.80;90.40
42755;DHT22;28407;51.830;5.684;2022-10-22T01:12:01;14.80;90.40
42755;DHT22;28407;51.830;5.684;2022-10-22T01:16:40;14.80;90.40
42755;DHT22;28407;51.830;5.684;2022-10-22T01:19:07;14.70;90.40
42755;DHT22;28407;51.830;5.684;2022-10-22T01:21:25;14.70;90.40
42755;DHT22;28407;51.830;5.684;2022-10-22T01:26:08;14.70;90.40
42755;DHT22;28407;51.830;5.684;2022-10-22T01:28:22;14.70;90.40
42755;DHT22;28407;51.830;5.684;2022-10-22T01:30:25;14.70;90.40
42755;DHT22;28407;51.830;5.684;2022-10-22T01:32:28;14.60;90.40
42755;DHT22;28407;51.830;5.684;2022-10-22T01:34:31;14.60;90.40
42755;DHT22;28407;51.830;5.684;2022-10-22T01:36:33;14.60;90.40
42755;DHT22;28407;51.830;5.684;2022-10-22T01:38:35;14.60;90.40
42755;DHT22;28407;51.830;5.684;2022-10-22T01:40:38;14.60;90.40
42755;DHT22;28407;51.830;5.684;2022-10-22T01:42:39;14.60;90.40
42755;DHT22;28407;51.830;5.684;2022-10-22T01:44:40;14.60;90.40
42755;DHT22;28407;51.830;5.684;2022-10-22T01:46:40;14.60;90.40
42755;DHT22;28407;51.830;5.684;2022-10-22T01:55:37;14.50;90.40
42755;DHT22;28407;51.830;5.684;2022-10-22T01:57:42;14.50;90.40
42755;DHT22;28407;51.830;5.684;2022-10-22T01:59:58;14.50;90.40
42755;DHT22;28407;51.830;5.684;2022-10-22T02:06:37;14.40;90.40
42755;DHT22;28407;51.830;5.684;2022-10-22T02:08:38;14.50;90.70
42755;DHT22;28407;51.830;5.684;2022-10-22T02:10:42;14.40;90.40
42755;DHT22;28407;51.830;5.684;2022-10-22T02:12:47;14.40;90.40
42755;DHT22;28407;51.830;5.684;2022-10-22T02:14:49;14.40;90.40
42755;DHT22;28407;51.830;5.684;2022-10-22T02:16:51;14.40;90.40
42755;DHT22;28407;51.830;5.684;2022-10-22T02:18:53;14.40;90.40
42755;DHT22;28407;51.830;5.684;2022-10-22T02:20:56;14.40;90.40
42755;DHT22;28407;51.830;5.684;2022-10-22T02:22:59;14.40;90.40
42755;DHT22;28407;51.830;5.684;2022-10-22T02:25:00;14.40;90.40
42755;DHT22;28407;51.830;5.684;2022-10-22T02:27:08;14.40;90.40
42755;DHT22;28407;51.830;5.684;2022-10-22T02:29:16;14.40;90.40
42755;DHT22;28407;51.830;5.684;2022-10-22T02:31:21;14.40;90.40
42755;DHT22;28407;51.830;5.684;2022-10-22T02:33:29;14.40;90.40
42755;DHT22;28407;51.830;5.684;2022-10-22T02:35:30;14.30;90.40
42755;DHT22;28407;51.830;5.684;2022-10-22T02:37:31;14.30;90.40
42755;DHT22;28407;51.830;5.684;2022-10-22T02:39:32;14.30;90.40
42755;DHT22;28407;51.830;5.684;2022-10-22T02:41:34;14.30;90.50
42755;DHT22;28407;51.830;5.684;2022-10-22T02:43:41;14.30;90.50
42755;DHT22;28407;51.830;5.684;2022-10-22T02:45:42;14.30;90.50
42755;DHT22;28407;51.830;5.684;2022-10-22T02:47:43;14.30;90.50
42755;DHT22;28407;51.830;5.684;2022-10-22T02:49:44;14.30;90.50
42755;DHT22;28407;51.830;5.684;2022-10-22T02:51:45;14.30;90.40
42755;DHT22;28407;51.830;5.684;2022-10-22T02:53:45;14.30;90.40
42755;DHT22;28407;51.830;5.684;2022-10-22T02:55:46;14.30;90.40
42755;DHT22;28407;51.830;5.684;2022-10-22T02:57:46;14.30;90.40
42755;DHT22;28407;51.830;5.684;2022-10-22T02:59:47;14.30;90.40
42755;DHT22;28407;51.830;5.684;2022-10-22T03:01:47;14.30;90.40
42755;DHT22;28407;51.830;5.684;2022-10-22T03:03:48;14.30;90.40
42755;DHT22;28407;51.830;5.684;2022-10-22T03:05:50;14.30;90.40
42755;DHT22;28407;51.830;5.684;2022-10-22T03:07:50;14.30;90.50
42755;DHT22;28407;51.830;5.684;2022-10-22T03:09:51;14.30;90.50
42755;DHT22;28407;51.830;5.684;2022-10-22T03:11:51;14.30;90.50
42755;DHT22;28407;51.830;5.684;2022-10-22T03:13:52;14.30;90.50
42755;DHT22;28407;51.830;5.684;2022-10-22T03:15:53;14.30;90.50
42755;DHT22;28407;51.830;5.684;2022-10-22T03:17:53;14.30;90.50
42755;DHT22;28407;51.830;5.684;2022-10-22T03:19:54;14.30;90.50
42755;DHT22;28407;51.830;5.684;2022-10-22T03:22:30;14.30;90.50
42755;DHT22;28407;51.830;5.684;2022-10-22T03:24:40;14.30;90.50
42755;DHT22;28407;51.830;5.684;2022-10-22T03:26:42;14.30;90.50
42755;DHT22;28407;51.830;5.684;2022-10-22T03:28:44;14.30;90.40
42755;DHT22;28407;51.830;5.684;2022-10-22T03:30:47;14.30;90.50
42755;DHT22;28407;51.830;5.684;2022-10-22T03:32:47;14.30;90.50
42755;DHT22;28407;51.830;5.684;2022-10-22T03:34:48;14.30;90.50
42755;DHT22;28407;51.830;5.684;2022-10-22T03:36:49;14.30;90.50
42755;DHT22;28407;51.830;5.684;2022-10-22T03:38:50;14.30;90.50
42755;DHT22;28407;51.830;5.684;2022-10-22T03:40:51;14.30;90.50
42755;DHT22;28407;51.830;5.684;2022-10-22T03:42:52;14.30;90.50
42755;DHT22;28407;51.830;5.684;2022-10-22T03:44:52;14.30;90.50
42755;DHT22;28407;51.830;5.684;2022-10-22T03:46:53;14.30;90.50
42755;DHT22;28407;51.830;5.684;2022-10-22T03:48:53;14.30;90.50
42755;DHT22;28407;51.830;5.684;2022-10-22T03:50:54;14.30;90.50
42755;DHT22;28407;51.830;5.684;2022-10-22T03:52:55;14.30;90.50
42755;DHT22;28407;51.830;5.684;2022-10-22T03:54:57;14.30;90.50
42755;DHT22;28407;51.830;5.684;2022-10-22T03:56:58;14.30;90.50
42755;DHT22;28407;51.830;5.684;2022-10-22T03:59:01;14.30;90.50
42755;DHT22;28407;51.830;5.684;2022-10-22T04:01:06;14.30;90.50
42755;DHT22;28407;51.830;5.684;2022-10-22T04:03:07;14.20;90.50
42755;DHT22;28407;51.830;5.684;2022-10-22T04:05:08;14.30;90.60
42755;DHT22;28407;51.830;5.684;2022-10-22T04:07:09;14.30;90.60
42755;DHT22;28407;51.830;5.684;2022-10-22T04:09:09;14.20;90.50
42755;DHT22;28407;51.830;5.684;2022-10-22T04:11:11;14.20;90.50
42755;DHT22;28407;51.830;5.684;2022-10-22T04:13:12;14.30;90.60
42755;DHT22;28407;51.830;5.684;2022-10-22T04:15:13;14.30;90.60
42755;DHT22;28407;51.830;5.684;2022-10-22T04:17:14;14.20;90.50
42755;DHT22;28407;51.830;5.684;2022-10-22T04:19:15;14.20;90.60
42755;DHT22;28407;51.830;5.684;2022-10-22T04:21:18;14.20;90.60
42755;DHT22;28407;51.830;5.684;2022-10-22T04:23:19;14.20;90.60
42755;DHT22;28407;51.830;5.684;2022-10-22T04:25:19;14.20;90.60
42755;DHT22;28407;51.830;5.684;2022-10-22T04:27:20;14.20;90.60
42755;DHT22;28407;51.830;5.684;2022-10-22T04:29:22;14.20;90.60
42755;DHT22;28407;51.830;5.684;2022-10-22T04:31:24;14.20;90.60
42755;DHT22;28407;51.830;5.684;2022-10-22T04:33:25;14.20;90.60
42755;DHT22;28407;51.830;5.684;2022-10-22T04:35:26;14.20;90.60
42755;DHT22;28407;51.830;5.684;2022-10-22T04:37:26;14.20;90.70
42755;DHT22;28407;51.830;5.684;2022-10-22T04:39:27;14.20;90.70
42755;DHT22;28407;51.830;5.684;2022-10-22T04:41:31;14.20;90.70
42755;DHT22;28407;51.830;5.684;2022-10-22T04:43:32;14.20;90.90
42755;DHT22;28407;51.830;5.684;2022-10-22T04:45:33;14.20;90.70
42755;DHT22;28407;51.830;5.684;2022-10-22T04:47:34;14.20;90.70
42755;DHT22;28407;51.830;5.684;2022-10-22T04:49:34;14.20;90.60
42755;DHT22;28407;51.830;5.684;2022-10-22T04:51:35;14.20;90.70
42755;DHT22;28407;51.830;5.684;2022-10-22T04:53:36;14.20;90.70
42755;DHT22;28407;51.830;5.684;2022-10-22T04:55:36;14.20;90.70
42755;DHT22;28407;51.830;5.684;2022-10-22T04:57:37;14.20;90.60
42755;DHT22;28407;51.830;5.684;2022-10-22T04:59:38;14.20;90.70
42755;DHT22;28407;51.830;5.684;2022-10-22T05:01:40;14.20;90.70
42755;DHT22;28407;51.830;5.684;2022-10-22T05:03:43;14.20;90.70
42755;DHT22;28407;51.830;5.684;2022-10-22T05:05:44;14.20;90.70
42755;DHT22;28407;51.830;5.684;2022-10-22T05:07:44;14.20;90.70
42755;DHT22;28407;51.830;5.684;2022-10-22T05:09:45;14.20;90.70
42755;DHT22;28407;51.830;5.684;2022-10-22T05:11:47;14.20;90.70
42755;DHT22;28407;51.830;5.684;2022-10-22T05:13:48;14.20;90.80
42755;DHT22;28407;51.830;5.684;2022-10-22T05:15:49;14.20;90.80
42755;DHT22;28407;51.830;5.684;2022-10-22T05:17:49;14.20;90.80
42755;DHT22;28407;51.830;5.684;2022-10-22T05:19:50;14.20;90.80
42755;DHT22;28407;51.830;5.684;2022-10-22T05:21:52;14.20;90.80
42755;DHT22;28407;51.830;5.684;2022-10-22T05:23:53;14.20;90.80
42755;DHT22;28407;51.830;5.684;2022-10-22T05:25:54;14.20;90.80
42755;DHT22;28407;51.830;5.684;2022-10-22T05:27:54;14.20;90.80
42755;DHT22;28407;51.830;5.684;2022-10-22T05:29:55;14.20;90.80
42755;DHT22;28407;51.830;5.684;2022-10-22T05:31:56;14.20;90.80
42755;DHT22;28407;51.830;5.684;2022-10-22T05:33:56;14.20;90.80
42755;DHT22;28407;51.830;5.684;2022-10-22T05:35:57;14.20;90.80
42755;DHT22;28407;51.830;5.684;2022-10-22T05:37:58;14.20;90.80
42755;DHT22;28407;51.830;5.684;2022-10-22T05:39:59;14.20;90.80
42755;DHT22;28407;51.830;5.684;2022-10-22T05:41:59;14.20;90.80
42755;DHT22;28407;51.830;5.684;2022-10-22T05:44:00;14.20;90.80
42755;DHT22;28407;51.830;5.684;2022-10-22T05:46:09;14.20;90.80
42755;DHT22;28407;51.830;5.684;2022-10-22T05:48:10;14.20;90.80
42755;DHT22;28407;51.830;5.684;2022-10-22T05:50:11;14.20;90.80
42755;DHT22;28407;51.830;5.684;2022-10-22T05:52:12;14.20;90.80
42755;DHT22;28407;51.830;5.684;2022-10-22T05:54:17;14.20;90.80
42755;DHT22;28407;51.830;5.684;2022-10-22T05:56:18;14.10;90.80
42755;DHT22;28407;51.830;5.684;2022-10-22T05:58:19;14.20;90.90
42755;DHT22;28407;51.830;5.684;2022-10-22T06:00:19;14.20;90.90
42755;DHT22;28407;51.830;5.684;2022-10-22T06:02:20;14.20;90.80
42755;DHT22;28407;51.830;5.684;2022-10-22T06:04:21;14.20;90.80
42755;DHT22;28407;51.830;5.684;2022-10-22T06:08:31;14.20;90.90
42755;DHT22;28407;51.830;5.684;2022-10-22T06:10:32;14.20;90.90
42755;DHT22;28407;51.830;5.684;2022-10-22T06:12:33;14.20;90.80
42755;DHT22;28407;51.830;5.684;2022-10-22T06:14:33;14.20;90.90
42755;DHT22;28407;51.830;5.684;2022-10-22T06:16:34;14.20;90.90
42755;DHT22;28407;51.830;5.684;2022-10-22T06:18:34;14.20;90.90
42755;DHT22;28407;51.830;5.684;2022-10-22T06:20:35;14.20;90.90
42755;DHT22;28407;51.830;5.684;2022-10-22T06:22:36;14.20;90.90
42755;DHT22;28407;51.830;5.684;2022-10-22T06:24:36;14.20;90.90
42755;DHT22;28407;51.830;5.684;2022-10-22T06:26:37;14.20;90.90
42755;DHT22;28407;51.830;5.684;2022-10-22T06:28:38;14.20;90.90
42755;DHT22;28407;51.830;5.684;2022-10-22T06:30:38;14.20;90.90
42755;DHT22;28407;51.830;5.684;2022-10-22T06:32:39;14.20;90.90
42755;DHT22;28407;51.830;5.684;2022-10-22T06:34:40;14.20;90.90
42755;DHT22;28407;51.830;5.684;2022-10-22T06:36:43;14.20;91.00
42755;DHT22;28407;51.830;5.684;2022-10-22T06:38:44;14.20;91.00
42755;DHT22;28407;51.830;5.684;2022-10-22T06:40:45;14.20;91.00
42755;DHT22;28407;51.830;5.684;2022-10-22T06:42:45;14.20;91.00
42755;DHT22;28407;51.830;5.684;2022-10-22T06:44:46;14.20;91.00
42755;DHT22;28407;51.830;5.684;2022-10-22T06:46:51;14.20;91.00
42755;DHT22;28407;51.830;5.684;2022-10-22T06:48:59;14.20;91.00
42755;DHT22;28407;51.830;5.684;2022-10-22T06:51:01;14.20;91.00
42755;DHT22;28407;51.830;5.684;2022-10-22T06:53:02;14.20;91.00
42755;DHT22;28407;51.830;5.684;2022-10-22T06:55:03;14.30;91.00
42755;DHT22;28407;51.830;5.684;2022-10-22T06:57:04;14.30;91.00
42755;DHT22;28407;51.830;5.684;2022-10-22T06:59:04;14.30;91.00
42755;DHT22;28407;51.830;5.684;2022-10-22T07:01:12;14.30;91.00
42755;DHT22;28407;51.830;5.684;2022-10-22T07:03:14;14.30;91.00
42755;DHT22;28407;51.830;5.684;2022-10-22T07:05:14;14.30;91.00
42755;DHT22;28407;51.830;5.684;2022-10-22T07:07:15;14.30;91.00
42755;DHT22;28407;51.830;5.684;2022-10-22T07:09:15;14.30;91.00
42755;DHT22;28407;51.830;5.684;2022-10-22T07:11:25;14.30;91.00
42755;DHT22;28407;51.830;5.684;2022-10-22T07:13:26;14.40;91.00
42755;DHT22;28407;51.830;5.684;2022-10-22T07:15:26;14.40;91.00
42755;DHT22;28407;51.830;5.684;2022-10-22T07:17:27;14.40;91.00
42755;DHT22;28407;51.830;5.684;2022-10-22T07:19:27;14.40;91.00
42755;DHT22;28407;51.830;5.684;2022-10-22T07:21:28;14.40;91.00
42755;DHT22;28407;51.830;5.684;2022-10-22T07:23:29;14.40;91.00
42755;DHT22;28407;51.830;5.684;2022-10-22T07:25:30;14.40;91.00
42755;DHT22;28407;51.830;5.684;2022-10-22T07:27:31;14.40;91.00
42755;DHT22;28407;51.830;5.684;2022-10-22T07:29:31;14.40;91.00
42755;DHT22;28407;51.830;5.684;2022-10-22T07:31:32;14.40;91.00
42755;DHT22;28407;51.830;5.684;2022-10-22T07:33:32;14.40;91.00
42755;DHT22;28407;51.830;5.684;2022-10-22T07:35:36;14.40;91.00
42755;DHT22;28407;51.830;5.684;2022-10-22T07:37:36;14.50;91.00
42755;DHT22;28407;51.830;5.684;2022-10-22T07:39:37;14.40;91.00
42755;DHT22;28407;51.830;5.684;2022-10-22T07:41:38;14.50;91.00
42755;DHT22;28407;51.830;5.684;2022-10-22T07:43:38;14.50;91.00
42755;DHT22;28407;51.830;5.684;2022-10-22T07:45:39;14.50;91.00
42755;DHT22;28407;51.830;5.684;2022-10-22T07:47:40;14.50;91.00
42755;DHT22;28407;51.830;5.684;2022-10-22T07:49:41;14.50;91.00
42755;DHT22;28407;51.830;5.684;2022-10-22T07:51:41;14.60;91.00
42755;DHT22;28407;51.830;5.684;2022-10-22T07:53:42;14.60;91.00
42755;DHT22;28407;51.830;5.684;2022-10-22T07:55:43;14.60;91.00
42755;DHT22;28407;51.830;5.684;2022-10-22T07:57:43;14.60;91.00
42755;DHT22;28407;51.830;5.684;2022-10-22T07:59:44;14.70;91.00
42755;DHT22;28407;51.830;5.684;2022-10-22T08:01:44;14.70;91.00
42755;DHT22;28407;51.830;5.684;2022-10-22T08:03:46;14.70;90.90
42755;DHT22;28407;51.830;5.684;2022-10-22T08:05:48;14.80;91.00
42755;DHT22;28407;51.830;5.684;2022-10-22T08:07:48;14.80;90.90
42755;DHT22;28407;51.830;5.684;2022-10-22T08:09:49;14.90;90.90
42755;DHT22;28407;51.830;5.684;2022-10-22T08:11:49;14.90;90.90
42755;DHT22;28407;51.830;5.684;2022-10-22T08:13:50;14.90;90.80
42755;DHT22;28407;51.830;5.684;2022-10-22T08:15:51;14.90;90.80
42755;DHT22;28407;51.830;5.684;2022-10-22T08:17:51;15.00;90.80
42755;DHT22;28407;51.830;5.684;2022-10-22T08:19:52;15.00;90.80
42755;DHT22;28407;51.830;5.684;2022-10-22T08:21:53;15.00;90.80
42755;DHT22;28407;51.830;5.684;2022-10-22T08:23:53;15.00;90.80
42755;DHT22;28407;51.830;5.684;2022-10-22T08:25:55;15.00;90.70
42755;DHT22;28407;51.830;5.684;2022-10-22T08:27:55;15.10;90.70
42755;DHT22;28407;51.830;5.684;2022-10-22T08:29:56;15.10;90.70
42755;DHT22;28407;51.830;5.684;2022-10-22T08:31:56;15.10;90.70
42755;DHT22;28407;51.830;5.684;2022-10-22T08:33:57;15.20;90.70
42755;DHT22;28407;51.830;5.684;2022-10-22T08:35:58;15.20;90.70
42755;DHT22;28407;51.830;5.684;2022-10-22T08:37:59;15.20;90.70
42755;DHT22;28407;51.830;5.684;2022-10-22T08:40:00;15.20;90.60
42755;DHT22;28407;51.830;5.684;2022-10-22T08:42:26;15.30;90.60
42755;DHT22;28407;51.830;5.684;2022-10-22T08:47:31;15.30;90.60
42755;DHT22;28407;51.830;5.684;2022-10-22T08:49:39;15.40;90.60
42755;DHT22;28407;51.830;5.684;2022-10-22T08:51:41;15.40;90.50
42755;DHT22;28407;51.830;5.684;2022-10-22T08:53:54;15.40;90.50
42755;DHT22;28407;51.830;5.684;2022-10-22T08:56:00;15.40;90.50
42755;DHT22;28407;51.830;5.684;2022-10-22T08:58:37;15.50;90.40
42755;DHT22;28407;51.830;5.684;2022-10-22T09:00:45;15.50;90.40
42755;DHT22;28407;51.830;5.684;2022-10-22T09:06:01;15.60;90.40
42755;DHT22;28407;51.830;5.684;2022-10-22T09:08:09;15.60;90.40
42755;DHT22;28407;51.830;5.684;2022-10-22T09:10:11;15.60;90.30
42755;DHT22;28407;51.830;5.684;2022-10-22T09:12:16;15.60;90.40
42755;DHT22;28407;51.830;5.684;2022-10-22T09:14:19;15.60;90.30
42755;DHT22;28407;51.830;5.684;2022-10-22T09:18:43;15.70;90.40
42755;DHT22;28407;51.830;5.684;2022-10-22T09:20:50;15.70;90.30
42755;DHT22;28407;51.830;5.684;2022-10-22T09:27:24;15.70;90.30
42755;DHT22;28407;51.830;5.684;2022-10-22T09:29:31;15.70;90.30
42755;DHT22;28407;51.830;5.684;2022-10-22T09:31:33;15.70;90.30
42755;DHT22;28407;51.830;5.684;2022-10-22T09:33:34;15.80;90.30
42755;DHT22;28407;51.830;5.684;2022-10-22T09:35:55;15.80;90.30
42755;DHT22;28407;51.830;5.684;2022-10-22T09:37:56;15.80;90.20
42755;DHT22;28407;51.830;5.684;2022-10-22T09:40:03;15.80;90.20
42755;DHT22;28407;51.830;5.684;2022-10-22T09:42:05;15.90;90.20
42755;DHT22;28407;51.830;5.684;2022-10-22T09:44:06;15.90;90.20
42755;DHT22;28407;51.830;5.684;2022-10-22T09:46:17;15.90;90.20
42755;DHT22;28407;51.830;5.684;2022-10-22T09:48:21;15.90;90.20
42755;DHT22;28407;51.830;5.684;2022-10-22T09:50:39;15.90;90.20
42755;DHT22;28407;51.830;5.684;2022-10-22T09:52:40;15.90;90.20
42755;DHT22;28407;51.830;5.684;2022-10-22T09:54:41;15.90;90.20
42755;DHT22;28407;51.830;5.684;2022-10-22T09:56:54;15.90;90.20
42755;DHT22;28407;51.830;5.684;2022-10-22T09:58:56;16.00;90.20
42755;DHT22;28407;51.830;5.684;2022-10-22T10:00:59;16.00;90.20
42755;DHT22;28407;51.830;5.684;2022-10-22T10:02:59;16.00;90.20
42755;DHT22;28407;51.830;5.684;2022-10-22T10:05:02;16.00;90.20
42755;DHT22;28407;51.830;5.684;2022-10-22T10:07:02;16.00;90.20
42755;DHT22;28407;51.830;5.684;2022-10-22T10:09:16;16.10;90.20
42755;DHT22;28407;51.830;5.684;2022-10-22T10:11:28;16.10;90.20
42755;DHT22;28407;51.830;5.684;2022-10-22T10:15:44;16.10;90.10
42755;DHT22;28407;51.830;5.684;2022-10-22T10:23:32;16.20;90.00
42755;DHT22;28407;51.830;5.684;2022-10-22T10:27:55;16.30;90.00
42755;DHT22;28407;51.830;5.684;2022-10-22T10:30:20;16.30;90.00
42755;DHT22;28407;51.830;5.684;2022-10-22T10:32:31;16.30;90.00
42755;DHT22;28407;51.830;5.684;2022-10-22T10:34:45;16.40;90.00
42755;DHT22;28407;51.830;5.684;2022-10-22T10:36:57;16.40;89.90
42755;DHT22;28407;51.830;5.684;2022-10-22T10:39:14;16.40;89.80
42755;DHT22;28407;51.830;5.684;2022-10-22T10:41:42;16.40;89.70
42755;DHT22;28407;51.830;5.684;2022-10-22T10:44:03;16.50;89.70
42755;DHT22;28407;51.830;5.684;2022-10-22T10:46:20;16.60;89.60
42755;DHT22;28407;51.830;5.684;2022-10-22T10:53:09;16.70;89.30
42755;DHT22;28407;51.830;5.684;2022-10-22T10:55:24;16.80;89.20
42755;DHT22;28407;51.830;5.684;2022-10-22T10:57:55;16.80;89.10
42755;DHT22;28407;51.830;5.684;2022-10-22T11:00:15;16.80;88.90
42755;DHT22;28407;51.830;5.684;2022-10-22T11:07:10;17.00;88.60
42755;DHT22;28407;51.830;5.684;2022-10-22T11:09:46;17.00;88.50
42755;DHT22;28407;51.830;5.684;2022-10-22T11:11:51;17.10;88.50
42755;DHT22;28407;51.830;5.684;2022-10-22T11:14:02;17.10;88.40
42755;DHT22;28407;51.830;5.684;2022-10-22T11:18:36;17.20;88.20
42755;DHT22;28407;51.830;5.684;2022-10-22T11:23:01;17.30;88.00
42755;DHT22;28407;51.830;5.684;2022-10-22T11:27:29;17.30;87.70
42755;DHT22;28407;51.830;5.684;2022-10-22T11:29:36;17.40;87.60
42755;DHT22;28407;51.830;5.684;2022-10-22T11:31:39;17.40;87.50
42755;DHT22;28407;51.830;5.684;2022-10-22T11:33:53;17.50;87.30
42755;DHT22;28407;51.830;5.684;2022-10-22T11:35:56;17.50;87.20
42755;DHT22;28407;51.830;5.684;2022-10-22T11:37:59;17.60;87.10
42755;DHT22;28407;51.830;5.684;2022-10-22T11:40:09;17.60;87.00
42755;DHT22;28407;51.830;5.684;2022-10-22T11:42:33;17.70;86.90
42755;DHT22;28407;51.830;5.684;2022-10-22T11:45:28;17.70;86.80
42755;DHT22;28407;51.830;5.684;2022-10-22T11:47:32;17.70;86.90
42755;DHT22;28407;51.830;5.684;2022-10-22T11:49:44;17.70;86.90
42755;DHT22;28407;51.830;5.684;2022-10-22T11:51:46;17.70;86.90
42755;DHT22;28407;51.830;5.684;2022-10-22T11:53:57;17.60;87.00
42755;DHT22;28407;51.830;5.684;2022-10-22T12:00:45;17.60;87.10
42755;DHT22;28407;51.830;5.684;2022-10-22T12:02:46;17.50;87.10
42755;DHT22;28407;51.830;5.684;2022-10-22T12:07:32;17.50;87.20
42755;DHT22;28407;51.830;5.684;2022-10-22T12:09:39;17.50;87.20
42755;DHT22;28407;51.830;5.684;2022-10-22T12:11:48;17.40;87.10
42755;DHT22;28407;51.830;5.684;2022-10-22T12:16:22;17.40;86.90
42755;DHT22;28407;51.830;5.684;2022-10-22T12:18:27;17.40;86.90
42755;DHT22;28407;51.830;5.684;2022-10-22T12:20:30;17.40;86.90
42755;DHT22;28407;51.830;5.684;2022-10-22T12:22:33;17.40;86.80
42755;DHT22;28407;51.830;5.684;2022-10-22T12:24:42;17.50;86.80
42755;DHT22;28407;51.830;5.684;2022-10-22T12:26:44;17.50;86.80
42755;DHT22;28407;51.830;5.684;2022-10-22T12:28:46;17.50;86.70
42755;DHT22;28407;51.830;5.684;2022-10-22T12:30:46;17.50;86.70
42755;DHT22;28407;51.830;5.684;2022-10-22T12:32:47;17.50;86.60
42755;DHT22;28407;51.830;5.684;2022-10-22T12:34:49;17.50;86.50
42755;DHT22;28407;51.830;5.684;2022-10-22T12:36:53;17.60;86.40
42755;DHT22;28407;51.830;5.684;2022-10-22T12:38:54;17.60;86.30
42755;DHT22;28407;51.830;5.684;2022-10-22T12:40:55;17.60;86.30
42755;DHT22;28407;51.830;5.684;2022-10-22T12:42:59;17.60;86.20
42755;DHT22;28407;51.830;5.684;2022-10-22T12:45:00;17.60;86.10
42755;DHT22;28407;51.830;5.684;2022-10-22T12:47:00;17.70;86.00
42755;DHT22;28407;51.830;5.684;2022-10-22T12:49:03;17.70;85.90
42755;DHT22;28407;51.830;5.684;2022-10-22T12:51:05;17.70;85.70
42755;DHT22;28407;51.830;5.684;2022-10-22T12:55:25;17.70;85.60
42755;DHT22;28407;51.830;5.684;2022-10-22T12:57:26;17.70;85.60
42755;DHT22;28407;51.830;5.684;2022-10-22T12:59:33;17.70;85.60
42755;DHT22;28407;51.830;5.684;2022-10-22T13:01:37;17.70;85.70
42755;DHT22;28407;51.830;5.684;2022-10-22T13:03:49;17.70;86.30
42755;DHT22;28407;51.830;5.684;2022-10-22T13:05:51;17.70;85.70
42755;DHT22;28407;51.830;5.684;2022-10-22T13:08:03;17.70;85.80
42755;DHT22;28407;51.830;5.684;2022-10-22T13:12:27;17.70;86.00
42755;DHT22;28407;51.830;5.684;2022-10-22T13:14:35;17.70;86.00
42755;DHT22;28407;51.830;5.684;2022-10-22T13:16:38;17.60;86.00
42755;DHT22;28407;51.830;5.684;2022-10-22T13:18:39;17.60;86.10
42755;DHT22;28407;51.830;5.684;2022-10-22T13:20:57;17.70;86.10
42755;DHT22;28407;51.830;5.684;2022-10-22T13:23:03;17.70;86.10
42755;DHT22;28407;51.830;5.684;2022-10-22T13:27:18;17.80;85.90
42755;DHT22;28407;51.830;5.684;2022-10-22T13:29:21;17.80;85.70
42755;DHT22;28407;51.830;5.684;2022-10-22T13:31:27;17.90;85.60
42755;DHT22;28407;51.830;5.684;2022-10-22T13:35:35;18.10;85.20
42755;DHT22;28407;51.830;5.684;2022-10-22T13:37:36;18.10;85.10
42755;DHT22;28407;51.830;5.684;2022-10-22T13:39:37;18.20;85.00
42755;DHT22;28407;51.830;5.684;2022-10-22T13:41:38;18.20;84.70
42755;DHT22;28407;51.830;5.684;2022-10-22T13:43:39;18.20;84.60
42755;DHT22;28407;51.830;5.684;2022-10-22T13:45:40;18.30;84.60
42755;DHT22;28407;51.830;5.684;2022-10-22T13:47:47;18.30;84.50
42755;DHT22;28407;51.830;5.684;2022-10-22T13:49:47;18.30;84.40
42755;DHT22;28407;51.830;5.684;2022-10-22T13:51:48;18.30;84.30
42755;DHT22;28407;51.830;5.684;2022-10-22T13:53:51;18.30;84.20
42755;DHT22;28407;51.830;5.684;2022-10-22T13:55:52;18.30;84.00
42755;DHT22;28407;51.830;5.684;2022-10-22T13:58:10;18.40;84.00
42755;DHT22;28407;51.830;5.684;2022-10-22T14:00:21;18.40;83.70
42755;DHT22;28407;51.830;5.684;2022-10-22T14:02:22;18.40;83.50
42755;DHT22;28407;51.830;5.684;2022-10-22T14:04:24;18.40;83.50
42755;DHT22;28407;51.830;5.684;2022-10-22T14:06:28;18.40;83.50
42755;DHT22;28407;51.830;5.684;2022-10-22T14:08:30;18.40;83.40
42755;DHT22;28407;51.830;5.684;2022-10-22T14:10:31;18.40;83.40
42755;DHT22;28407;51.830;5.684;2022-10-22T14:12:31;18.40;83.40
42755;DHT22;28407;51.830;5.684;2022-10-22T14:14:32;18.30;83.30
42755;DHT22;28407;51.830;5.684;2022-10-22T14:16:33;18.30;83.30
42755;DHT22;28407;51.830;5.684;2022-10-22T14:18:34;18.30;83.40
42755;DHT22;28407;51.830;5.684;2022-10-22T14:20:36;18.30;83.40